Time;durP1;ratioP1;P1;durP2;ratioP2;P2;SDS_P1;SDS_P2;PMS_P1;PMS_P2;Temp;Humidity;BMP_temperature;BMP_pressure;BME280_temperature;BME280_humidity;BME280_pressure;Samples;Min_cycle;Max_cycle;Signal;HPM_P1;HPM_P2
2022/03/29 00:01:09;;;;;;;11.90;6.65;;;;;;;3.19;74.69;98089.09;2627423;28;20044;-78
2022/03/29 00:02:24;;;;;;;12.85;6.75;;;;;;;3.21;74.75;98093.41;2627801;28;20055;-78
2022/03/29 00:03:40;;;;;;;12.38;7.07;;;;;;;3.20;75.14;98099.41;2627090;28;20174;-79
2022/03/29 00:04:59;;;;;;;15.07;7.25;;;;;;;3.14;74.89;98102.03;2627361;28;20075;-78
2022/03/29 00:06:15;;;;;;;15.20;6.82;;;;;;;3.14;74.78;98102.03;2627749;28;20051;-78
2022/03/29 00:07:31;;;;;;;13.13;6.45;;;;;;;3.13;74.94;98102.03;2627261;28;20135;-78
2022/03/29 00:08:46;;;;;;;13.20;7.38;;;;;;;3.06;75.59;98101.19;2626203;28;20556;-78
2022/03/29 00:10:07;;;;;;;14.27;7.43;;;;;;;3.05;75.26;98102.94;2626380;28;20581;-78
2022/03/29 00:11:22;;;;;;;11.90;6.35;;;;;;;3.04;75.76;98103.81;2627052;28;20499;-78
2022/03/29 00:12:38;;;;;;;14.73;7.18;;;;;;;3.02;75.97;98102.97;2627321;28;20110;-79
2022/03/29 00:13:53;;;;;;;14.82;7.65;;;;;;;3.01;76.06;98100.38;2627146;28;20106;-78
2022/03/29 00:15:10;;;;;;;16.48;8.05;;;;;;;3.01;76.61;98103.81;2626777;28;20051;-78
2022/03/29 00:16:26;;;;;;;13.88;7.88;;;;;;;2.92;76.56;98103.84;2626950;28;20051;-81
2022/03/29 00:17:41;;;;;;;15.13;7.90;;;;;;;2.85;76.98;98105.59;2626639;28;20414;-79
2022/03/29 00:18:57;;;;;;;15.27;7.88;;;;;;;2.74;77.26;98095.28;2627171;28;20131;-79
2022/03/29 00:20:13;;;;;;;14.80;7.63;;;;;;;2.59;78.05;98106.47;2627481;28;20063;-78
2022/03/29 00:21:29;;;;;;;13.70;7.75;;;;;;;2.47;77.24;98102.19;2627323;28;20721;-78
2022/03/29 00:22:46;;;;;;;14.57;7.50;;;;;;;2.59;76.85;98093.56;2626606;28;20052;-78
2022/03/29 00:24:02;;;;;;;11.95;7.63;;;;;;;2.77;75.95;98092.66;2626665;28;20055;-78
2022/03/29 00:25:18;;;;;;;14.05;7.45;;;;;;;2.76;76.30;98090.06;2625957;28;20052;-78
2022/03/29 00:26:33;;;;;;;14.32;7.47;;;;;;;2.79;76.32;98090.94;2626519;28;20886;-78
2022/03/29 00:27:49;;;;;;;11.73;7.10;;;;;;;2.79;76.08;98090.94;2626432;28;20084;-80
2022/03/29 00:29:08;;;;;;;12.23;7.22;;;;;;;2.77;75.44;98102.13;2626597;28;20043;-79
2022/03/29 00:30:23;;;;;;;13.63;6.70;;;;;;;2.61;76.20;98103.91;2626718;28;20055;-78
2022/03/29 00:31:39;;;;;;;13.27;7.68;;;;;;;2.54;78.20;98097.88;2626095;28;20162;-82
2022/03/29 00:32:55;;;;;;;14.77;7.80;;;;;;;2.55;78.56;98086.69;2626704;28;20043;-78
2022/03/29 00:34:11;;;;;;;15.10;8.27;;;;;;;2.58;78.00;98089.25;2627223;28;20163;-77
2022/03/29 00:35:27;;;;;;;14.27;7.47;;;;;;;2.64;77.12;98084.06;2627155;28;20105;-78
2022/03/29 00:36:42;;;;;;;13.70;7.68;;;;;;;2.72;77.38;98080.63;2626664;28;20401;-78
2022/03/29 00:37:58;;;;;;;18.55;7.65;;;;;;;2.80;77.51;98087.50;2626125;28;20044;-83
2022/03/29 00:39:13;;;;;;;14.90;6.82;;;;;;;2.87;77.28;98092.66;2625921;28;20070;-78
2022/03/29 00:40:29;;;;;;;13.35;7.43;;;;;;;2.81;76.52;98086.63;2626639;28;20048;-78
2022/03/29 00:41:45;;;;;;;15.15;7.20;;;;;;;2.75;76.04;98089.22;2626681;28;20048;-81
2022/03/29 00:43:00;;;;;;;12.90;6.93;;;;;;;2.62;77.34;98090.13;2627198;28;20044;-80
2022/03/29 00:44:16;;;;;;;14.18;7.78;;;;;;;2.59;77.34;98088.38;2626861;28;20054;-78
2022/03/29 00:45:32;;;;;;;12.80;6.68;;;;;;;2.59;77.42;98084.97;2626628;28;20048;-78
2022/03/29 00:46:48;;;;;;;12.25;6.93;;;;;;;2.63;76.88;98081.50;2626816;28;20491;-78
2022/03/29 00:48:07;;;;;;;14.35;7.95;;;;;;;2.61;77.79;98088.41;2626961;28;20048;-79
2022/03/29 00:49:22;;;;;;;13.25;7.55;;;;;;;2.63;77.45;98076.34;2627021;28;20051;-79
2022/03/29 00:50:38;;;;;;;14.80;7.53;;;;;;;2.59;77.47;98085.81;2626567;28;20052;-78
2022/03/29 00:51:58;;;;;;;10.95;6.78;;;;;;;2.61;76.80;98086.66;2627190;28;20047;-80
2022/03/29 00:53:16;;;;;;;13.15;6.60;;;;;;;2.60;77.01;98084.94;2626453;28;20052;-78
2022/03/29 00:54:34;;;;;;;11.95;6.53;;;;;;;2.67;76.37;98078.91;2626953;28;20058;-78
2022/03/29 00:55:54;;;;;;;10.05;6.45;;;;;;;2.71;76.68;98078.91;2626862;28;20052;-78
2022/03/29 00:57:11;;;;;;;13.43;7.28;;;;;;;2.59;77.21;98085.81;2626466;28;20707;-78
2022/03/29 00:58:27;;;;;;;12.30;6.43;;;;;;;2.57;76.68;98092.72;2626508;28;20134;-79
2022/03/29 00:59:45;;;;;;;12.13;6.68;;;;;;;2.59;76.46;98074.63;2627385;28;20080;-78
2022/03/29 01:01:02;;;;;;;12.13;6.53;;;;;;;2.62;76.35;98072.88;2626374;28;20075;-78
2022/03/29 01:02:18;;;;;;;12.80;6.68;;;;;;;2.62;76.53;98075.47;2627049;28;20084;-78
2022/03/29 01:03:34;;;;;;;11.90;7.13;;;;;;;2.64;76.55;98073.72;2626531;28;20044;-78
2022/03/29 01:04:50;;;;;;;14.07;8.05;;;;;;;2.66;76.68;98071.16;2626782;28;20464;-78
2022/03/29 01:06:06;;;;;;;17.85;7.15;;;;;;;2.67;76.39;98078.91;2626965;28;20044;-78
2022/03/29 01:07:22;;;;;;;11.82;6.55;;;;;;;2.68;76.90;98072.88;2626096;28;20055;-82
2022/03/29 01:08:37;;;;;;;14.40;7.50;;;;;;;2.73;76.94;98065.13;2626255;28;20051;-78
2022/03/29 01:09:53;;;;;;;13.77;7.57;;;;;;;2.78;77.07;98067.66;2626860;28;20369;-79
2022/03/29 01:11:12;;;;;;;11.15;6.40;;;;;;;2.78;77.25;98067.66;2626429;28;20052;-79
2022/03/29 01:12:31;;;;;;;14.27;7.10;;;;;;;2.81;76.52;98070.25;2626587;28;20712;-78
2022/03/29 01:13:46;;;;;;;11.05;6.63;;;;;;;2.76;76.88;98065.09;2626686;28;20048;-79
2022/03/29 01:15:05;;;;;;;14.38;6.82;;;;;;;2.71;77.09;98063.38;2626006;28;20082;-78
2022/03/29 01:17:56;;;;;;;12.43;7.05;;;;;;;2.51;78.74;98067.72;2627125;28;20048;-79
2022/03/29 01:19:13;;;;;;;13.38;6.78;;;;;;;2.56;78.37;98062.56;2626146;28;20131;-83
2022/03/29 01:20:31;;;;;;;12.82;6.97;;;;;;;2.59;77.29;98061.69;2626804;28;20048;-79
2022/03/29 01:21:58;;;;;;;16.17;7.30;;;;;;;2.53;76.96;98055.66;2626896;28;20055;-82
2022/03/29 01:23:14;;;;;;;13.05;7.25;;;;;;;2.56;77.35;98049.63;2626904;28;20051;-79
2022/03/29 01:24:29;;;;;;;10.50;6.80;;;;;;;2.61;77.77;98054.81;2626931;28;20044;-78
2022/03/29 01:25:46;;;;;;;12.80;6.65;;;;;;;2.62;77.61;98054.78;2626886;28;20052;-78
2022/03/29 01:27:04;;;;;;;14.77;6.95;;;;;;;2.70;77.58;98061.66;2626677;28;20083;-79
2022/03/29 01:28:22;;;;;;;11.88;6.55;;;;;;;2.65;77.53;98052.22;2626812;28;20044;-79
2022/03/29 01:29:38;;;;;;;11.35;6.18;;;;;;;2.62;77.50;98046.19;2627269;28;20058;-78
2022/03/29 01:30:54;;;;;;;11.68;6.60;;;;;;;2.65;77.64;98044.47;2626329;28;20054;-79
2022/03/29 01:32:11;;;;;;;16.20;7.25;;;;;;;2.72;77.48;98041.84;2627200;28;20074;-78
2022/03/29 01:33:27;;;;;;;13.10;6.38;;;;;;;2.72;77.50;98041.84;2627162;28;20052;-79
2022/03/29 01:34:43;;;;;;;14.50;6.55;;;;;;;2.70;76.65;98046.16;2626100;28;20048;-79
2022/03/29 01:36:00;;;;;;;11.80;6.40;;;;;;;2.71;76.62;98045.28;2626766;28;20052;-79
2022/03/29 01:37:16;;;;;;;12.48;6.78;;;;;;;2.69;76.42;98037.53;2626584;28;20056;-78
2022/03/29 01:38:32;;;;;;;10.85;6.68;;;;;;;2.72;76.69;98045.28;2626626;28;20609;-79
2022/03/29 01:39:47;;;;;;;11.00;6.20;;;;;;;2.76;77.10;98040.97;2626608;28;20101;-79
2022/03/29 01:41:05;;;;;;;13.15;7.05;;;;;;;2.76;76.88;98043.53;2626706;28;20048;-78
2022/03/29 01:42:21;;;;;;;12.70;6.72;;;;;;;2.73;77.06;98036.69;2627441;28;20051;-78
2022/03/29 01:43:36;;;;;;;11.60;6.20;;;;;;;2.67;76.98;98026.34;2626881;28;20055;-78
2022/03/29 01:44:52;;;;;;;10.25;5.72;;;;;;;2.59;76.19;98034.13;2626486;28;20051;-79
2022/03/29 01:46:12;;;;;;;10.80;6.35;;;;;;;2.59;75.92;98025.53;2627012;28;20121;-78
2022/03/29 01:47:28;;;;;;;10.57;5.88;;;;;;;2.59;76.13;98033.28;2626579;28;20080;-79
2022/03/29 01:48:43;;;;;;;9.88;6.45;;;;;;;2.58;76.61;98027.22;2626932;28;20523;-78
2022/03/29 01:49:59;;;;;;;11.88;6.60;;;;;;;2.62;76.95;98023.75;2626516;28;20057;-78
2022/03/29 01:51:14;;;;;;;10.95;5.97;;;;;;;2.67;77.54;98022.03;2626490;28;20063;-82
2022/03/29 01:52:40;;;;;;;10.93;5.93;;;;;;;2.67;77.30;98022.03;2626813;28;20056;-78
2022/03/29 01:53:59;;;;;;;12.52;6.63;;;;;;;2.67;76.68;98016.00;2626870;28;20479;-79
2022/03/29 01:55:17;;;;;;;12.73;6.38;;;;;;;2.65;76.75;98008.28;2626609;28;20473;-79
2022/03/29 01:56:34;;;;;;;11.68;6.50;;;;;;;2.65;76.88;98018.63;2626784;28;20496;-78
2022/03/29 01:57:50;;;;;;;12.73;6.60;;;;;;;2.64;77.04;98011.69;2626672;28;20487;-80
2022/03/29 01:59:08;;;;;;;14.95;6.85;;;;;;;2.67;77.48;98013.41;2626217;28;20552;-80
2022/03/29 02:00:38;;;;;;;12.60;6.90;;;;;;;2.71;77.66;98006.53;2625808;28;20514;-79
2022/03/29 02:01:54;;;;;;;12.98;7.07;;;;;;;2.77;77.80;98009.06;2626417;28;20059;-78
2022/03/29 02:03:09;;;;;;;11.70;6.60;;;;;;;2.79;77.90;97999.56;2626632;28;20044;-79
2022/03/29 02:04:25;;;;;;;15.40;7.10;;;;;;;2.78;78.22;98003.91;2626653;28;20146;-78
2022/03/29 02:05:40;;;;;;;11.80;6.68;;;;;;;2.76;77.96;98004.78;2626223;28;20554;-78
2022/03/29 02:06:59;;;;;;;14.32;6.93;;;;;;;2.77;78.36;98014.25;2626777;28;20048;-79
2022/03/29 02:08:16;;;;;;;12.93;6.97;;;;;;;2.79;78.32;98008.22;2626979;28;20052;-78
2022/03/29 02:09:31;;;;;;;11.13;6.32;;;;;;;2.76;78.35;98007.34;2626476;28;20097;-79
2022/03/29 02:10:47;;;;;;;12.88;6.85;;;;;;;2.71;77.67;98012.53;2626850;28;20070;-79
2022/03/29 02:12:05;;;;;;;12.52;6.78;;;;;;;2.70;77.71;98004.81;2625998;28;20047;-78
2022/03/29 02:13:21;;;;;;;11.98;6.82;;;;;;;2.77;78.14;98006.47;2626238;28;20561;-80
2022/03/29 02:14:37;;;;;;;12.70;6.82;;;;;;;2.99;77.67;98011.59;2626990;28;20142;-79
2022/03/29 02:15:53;;;;;;;13.05;7.05;;;;;;;3.06;76.81;98008.09;2626038;28;20040;-78
2022/03/29 02:17:08;;;;;;;12.02;6.47;;;;;;;2.92;75.90;98006.41;2626418;28;20139;-79
2022/03/29 02:18:24;;;;;;;16.63;7.35;;;;;;;2.84;76.78;98008.19;2626703;28;20285;-81
2022/03/29 02:19:39;;;;;;;12.32;7.15;;;;;;;2.76;77.64;98000.47;2626902;28;20067;-83
2022/03/29 02:20:55;;;;;;;14.55;7.20;;;;;;;2.74;77.36;98012.56;2628738;28;20410;-79
2022/03/29 02:22:10;;;;;;;14.20;7.03;;;;;;;2.74;77.37;98009.97;2628845;28;20048;-81
2022/03/29 02:23:26;;;;;;;14.88;7.90;;;;;;;2.64;77.44;98006.53;2628730;28;20127;-79
2022/03/29 02:24:42;;;;;;;14.85;7.28;;;;;;;2.59;77.31;98005.69;2628273;28;20048;-78
2022/03/29 02:25:58;;;;;;;10.80;6.90;;;;;;;2.61;76.93;98003.94;2629116;28;20044;-78
2022/03/29 02:27:13;;;;;;;13.43;6.93;;;;;;;2.57;77.32;98004.84;2627776;28;20048;-83
2022/03/29 02:28:29;;;;;;;12.88;7.10;;;;;;;2.54;77.06;98002.28;2628739;28;20052;-79
2022/03/29 02:29:45;;;;;;;11.82;6.90;;;;;;;2.51;76.79;97999.66;2628013;28;20040;-79
2022/03/29 02:31:00;;;;;;;13.15;6.63;;;;;;;2.43;77.22;97993.69;2628263;28;20389;-78
2022/03/29 02:32:16;;;;;;;12.48;7.05;;;;;;;2.40;77.53;97997.13;2628844;28;20048;-81
2022/03/29 02:33:32;;;;;;;13.02;7.20;;;;;;;2.37;77.94;97997.97;2628552;28;20486;-78
2022/03/29 02:34:47;;;;;;;14.85;7.40;;;;;;;2.38;78.47;97998.84;2628275;28;20513;-78
2022/03/29 02:36:03;;;;;;;12.73;7.00;;;;;;;2.35;78.66;97991.13;2628406;28;20582;-78
2022/03/29 02:37:19;;;;;;;16.88;7.05;;;;;;;2.34;78.73;97998.00;2628152;28;20048;-78
2022/03/29 02:38:35;;;;;;;13.48;7.18;;;;;;;2.36;78.37;97991.09;2628261;28;20055;-78
2022/03/29 02:39:50;;;;;;;13.43;7.10;;;;;;;2.37;78.65;97991.97;2627899;28;20249;-77
2022/03/29 02:41:06;;;;;;;11.18;6.97;;;;;;;2.34;78.08;97989.41;2628826;28;20048;-85
2022/03/29 02:42:21;;;;;;;15.18;6.65;;;;;;;2.34;78.09;97991.97;2627900;28;20051;-78
2022/03/29 02:43:37;;;;;;;13.88;6.85;;;;;;;2.32;78.03;97983.38;2628596;28;20589;-78
2022/03/29 02:44:53;;;;;;;15.13;7.20;;;;;;;2.38;77.58;97984.22;2628032;28;20055;-78
2022/03/29 02:46:09;;;;;;;13.57;6.50;;;;;;;2.43;77.53;97985.94;2628438;28;20055;-78
2022/03/29 02:47:24;;;;;;;15.15;7.82;;;;;;;2.44;77.78;97977.31;2628763;28;20469;-78
2022/03/29 02:48:40;;;;;;;17.48;7.80;;;;;;;2.44;78.13;97982.47;2628046;28;20430;-79
2022/03/29 02:49:55;;;;;;;12.82;6.70;;;;;;;2.46;77.72;97981.63;2627819;28;20040;-79
2022/03/29 02:51:11;;;;;;;16.83;8.15;;;;;;;2.44;77.78;97982.47;2627717;28;20701;-78
2022/03/29 02:52:26;;;;;;;14.15;8.02;;;;;;;2.40;77.64;97976.44;2628310;28;20422;-79
2022/03/29 02:53:42;;;;;;;14.20;7.80;;;;;;;2.44;77.69;97974.72;2628589;28;20082;-78
2022/03/29 02:54:58;;;;;;;14.57;7.53;;;;;;;2.46;77.90;97978.16;2628302;28;20319;-79
2022/03/29 02:56:14;;;;;;;16.88;7.63;;;;;;;2.45;78.60;97979.91;2628056;28;20047;-79
2022/03/29 02:57:29;;;;;;;13.35;7.45;;;;;;;2.52;78.50;97978.16;2628373;28;20052;-79
2022/03/29 02:58:45;;;;;;;13.63;7.82;;;;;;;2.64;78.33;97983.25;2628316;28;20044;-78
2022/03/29 03:00:01;;;;;;;18.30;10.13;;;;;;;2.83;77.40;97980.63;2628279;28;20105;-79
2022/03/29 03:01:17;;;;;;;17.67;10.18;;;;;;;2.82;76.95;97977.16;2626756;28;20410;-79
2022/03/29 03:02:32;;;;;;;17.20;9.23;;;;;;;2.71;76.98;97971.19;2627954;28;20044;-81
2022/03/29 03:03:48;;;;;;;20.95;10.55;;;;;;;2.62;77.25;97977.25;2627937;28;20513;-78
2022/03/29 03:05:04;;;;;;;16.92;9.27;;;;;;;2.52;76.90;97976.41;2628474;28;20044;-78
2022/03/29 03:06:20;;;;;;;14.05;7.93;;;;;;;2.42;77.58;97977.31;2628014;28;20380;-79
2022/03/29 03:07:35;;;;;;;12.30;6.95;;;;;;;2.25;79.06;97977.38;2627769;28;20508;-78
2022/03/29 03:08:51;;;;;;;15.70;8.82;;;;;;;2.19;78.74;97974.78;2628072;28;20098;-79
2022/03/29 03:10:07;;;;;;;14.45;8.27;;;;;;;2.30;78.88;97980.78;2628380;28;20048;-79
2022/03/29 03:11:23;;;;;;;17.27;8.23;;;;;;;2.39;78.36;97970.44;2627143;28;20575;-78
2022/03/29 03:12:44;;;;;;;16.63;7.95;;;;;;;2.51;78.18;97971.25;2628396;28;20083;-79
2022/03/29 03:13:59;;;;;;;14.50;8.17;;;;;;;2.53;78.78;97972.13;2627688;28;20052;-81
2022/03/29 03:15:21;;;;;;;13.02;8.02;;;;;;;2.63;78.46;97978.97;2628031;28;20468;-78
2022/03/29 03:16:36;;;;;;;14.52;7.85;;;;;;;2.60;77.86;97976.41;2628176;28;20119;-79
2022/03/29 03:17:53;;;;;;;16.38;8.55;;;;;;;2.54;76.40;97974.69;2627563;28;20055;-78
2022/03/29 03:19:09;;;;;;;14.15;7.30;;;;;;;2.45;76.56;97973.88;2628202;28;20437;-77
2022/03/29 03:20:26;;;;;;;15.88;7.80;;;;;;;2.40;76.61;97968.69;2627659;28;20055;-78
2022/03/29 03:21:42;;;;;;;13.10;8.13;;;;;;;2.47;78.32;97977.28;2627774;28;20052;-78
2022/03/29 03:22:57;;;;;;;15.57;8.10;;;;;;;2.73;78.12;97973.75;2628124;28;20211;-78
2022/03/29 03:24:13;;;;;;;14.10;8.00;;;;;;;2.82;77.78;97972.00;2627943;28;20127;-78
2022/03/29 03:25:29;;;;;;;13.57;7.78;;;;;;;2.86;77.59;97977.16;2627288;28;20097;-80
2022/03/29 03:26:44;;;;;;;15.43;7.45;;;;;;;2.81;77.55;97977.19;2628189;28;20512;-77
2022/03/29 03:28:00;;;;;;;14.52;7.32;;;;;;;2.76;77.73;97976.34;2627440;28;20056;-79
2022/03/29 03:29:16;;;;;;;18.38;8.20;;;;;;;2.80;77.25;97975.47;2627657;28;20418;-78
2022/03/29 03:30:33;;;;;;;16.83;7.50;;;;;;;2.65;78.08;97971.22;2627637;28;20499;-79
2022/03/29 03:31:49;;;;;;;13.93;7.90;;;;;;;2.51;78.79;97968.66;2626801;28;20036;-82
2022/03/29 03:33:04;;;;;;;17.67;8.57;;;;;;;2.49;79.04;97972.97;2627537;28;20047;-77
2022/03/29 03:34:20;;;;;;;15.18;8.35;;;;;;;2.49;79.16;97975.56;2626150;28;20105;-80
2022/03/29 03:35:35;;;;;;;16.85;8.30;;;;;;;2.45;79.44;97968.69;2627787;28;20075;-78
2022/03/29 03:36:51;;;;;;;15.52;7.90;;;;;;;2.39;79.68;97973.03;2627544;28;20448;-77
2022/03/29 03:38:07;;;;;;;14.20;7.88;;;;;;;2.38;79.98;97965.25;2627607;28;20086;-78
2022/03/29 03:39:23;;;;;;;12.85;7.53;;;;;;;2.36;79.52;97967.84;2627220;28;20507;-80
2022/03/29 03:40:41;;;;;;;16.23;8.38;;;;;;;2.35;79.93;97973.88;2627275;28;20066;-78
2022/03/29 03:41:56;;;;;;;14.52;7.47;;;;;;;2.31;79.15;97969.59;2627688;28;20097;-78
2022/03/29 03:43:12;;;;;;;15.38;8.55;;;;;;;2.36;79.37;97969.59;2628006;28;20044;-78
2022/03/29 03:44:28;;;;;;;14.40;8.27;;;;;;;2.53;79.60;97972.13;2627174;28;20449;-78
2022/03/29 03:45:43;;;;;;;15.73;8.18;;;;;;;2.70;79.26;97972.03;2626905;28;20117;-77
2022/03/29 03:47:00;;;;;;;17.45;8.32;;;;;;;2.70;78.67;97973.78;2625341;28;20052;-81
2022/03/29 03:48:15;;;;;;;14.02;7.95;;;;;;;2.65;77.85;97971.22;2627866;28;20056;-79
2022/03/29 03:49:31;;;;;;;17.55;7.90;;;;;;;2.60;77.34;97966.06;2627773;28;20052;-78
2022/03/29 03:50:47;;;;;;;15.23;7.93;;;;;;;2.52;77.05;97962.66;2628060;28;20446;-79
2022/03/29 03:52:04;;;;;;;15.27;7.75;;;;;;;2.47;77.12;97964.38;2627727;28;20093;-79
2022/03/29 03:53:19;;;;;;;11.80;7.20;;;;;;;2.43;77.12;97966.09;2627780;28;20048;-79
2022/03/29 03:54:36;;;;;;;15.10;7.78;;;;;;;2.33;77.06;97967.84;2627343;28;20123;-79
2022/03/29 03:55:51;;;;;;;15.85;7.72;;;;;;;2.22;77.74;97962.72;2627751;28;20143;-79
2022/03/29 03:57:07;;;;;;;13.43;7.50;;;;;;;2.17;78.04;97961.00;2627121;28;20394;-79
2022/03/29 03:58:23;;;;;;;15.57;7.95;;;;;;;2.07;78.71;97961.00;2627767;28;20048;-78
2022/03/29 03:59:39;;;;;;;16.10;7.72;;;;;;;2.00;78.68;97959.31;2626784;28;20079;-79
2022/03/29 04:00:54;;;;;;;14.52;7.60;;;;;;;1.97;78.95;97954.16;2627924;28;20146;-80
2022/03/29 04:02:10;;;;;;;18.80;8.27;;;;;;;1.97;79.69;97957.59;2625692;28;20196;-79
2022/03/29 04:03:26;;;;;;;15.70;7.43;;;;;;;1.99;79.58;97955.03;2627621;28;20086;-80
2022/03/29 04:04:42;;;;;;;17.05;8.23;;;;;;;2.08;80.01;97960.16;2627689;28;20047;-79
2022/03/29 04:05:57;;;;;;;12.18;7.35;;;;;;;2.15;80.11;97950.66;2627985;28;20040;-79
2022/03/29 04:07:13;;;;;;;19.70;9.25;;;;;;;2.29;79.59;97947.19;2627206;28;20117;-78
2022/03/29 04:08:28;;;;;;;16.95;8.43;;;;;;;2.39;79.29;97954.06;2626603;28;20048;-79
2022/03/29 04:09:44;;;;;;;16.20;8.80;;;;;;;2.40;79.88;97950.63;2626905;28;20051;-79
2022/03/29 04:11:00;;;;;;;17.65;8.70;;;;;;;2.51;79.66;97953.16;2626881;28;20085;-79
2022/03/29 04:12:15;;;;;;;16.80;8.82;;;;;;;2.52;78.52;97945.41;2627055;28;20475;-79
2022/03/29 04:13:31;;;;;;;17.48;9.43;;;;;;;2.51;79.55;97950.56;2627617;28;20076;-80
2022/03/29 04:14:47;;;;;;;17.17;7.88;;;;;;;2.51;79.36;97954.03;2626335;28;20629;-79
2022/03/29 04:16:03;;;;;;;20.70;9.40;;;;;;;2.47;79.26;97947.16;2626499;28;20048;-79
2022/03/29 04:17:19;;;;;;;17.45;8.27;;;;;;;2.36;79.70;97944.59;2627776;28;20526;-79
2022/03/29 04:18:35;;;;;;;15.75;7.82;;;;;;;2.25;80.40;97939.47;2626853;28;20069;-82
2022/03/29 04:19:51;;;;;;;17.45;8.80;;;;;;;2.21;80.34;97949.81;2626936;28;20567;-79
2022/03/29 04:21:08;;;;;;;16.48;8.23;;;;;;;2.19;80.59;97948.94;2627234;28;20040;-80
2022/03/29 04:22:24;;;;;;;16.13;8.77;;;;;;;2.19;80.28;97946.38;2627812;28;20048;-80
2022/03/29 04:23:39;;;;;;;16.27;9.07;;;;;;;2.16;79.62;97942.06;2627173;28;20111;-79
2022/03/29 04:24:55;;;;;;;15.50;8.13;;;;;;;2.16;79.60;97944.63;2627836;28;20075;-79
2022/03/29 04:26:11;;;;;;;14.75;8.68;;;;;;;2.15;79.72;97939.50;2627573;28;20049;-79
2022/03/29 04:27:26;;;;;;;14.40;7.45;;;;;;;2.14;79.47;97941.22;2627412;28;20372;-80
2022/03/29 04:28:42;;;;;;;17.70;8.68;;;;;;;2.14;79.58;97935.19;2627052;28;20249;-80
2022/03/29 04:29:58;;;;;;;14.57;8.07;;;;;;;2.09;79.59;97933.47;2627431;28;20039;-82
2022/03/29 04:31:13;;;;;;;15.30;8.35;;;;;;;2.09;79.05;97935.22;2627472;28;20048;-80
2022/03/29 04:32:29;;;;;;;13.27;8.07;;;;;;;2.04;78.99;97932.63;2627699;28;20109;-80
2022/03/29 04:33:45;;;;;;;16.30;8.20;;;;;;;2.03;78.79;97938.66;2627002;28;20048;-80
2022/03/29 04:35:00;;;;;;;14.45;7.25;;;;;;;2.04;78.39;97939.53;2627279;28;20060;-82
2022/03/29 04:36:16;;;;;;;12.70;7.43;;;;;;;1.98;78.79;97933.50;2626004;28;20778;-80
2022/03/29 04:37:32;;;;;;;16.00;7.78;;;;;;;2.00;78.73;97933.50;2626826;28;20048;-81
2022/03/29 04:38:48;;;;;;;14.52;7.88;;;;;;;2.02;78.78;97930.91;2627523;28;20055;-80
2022/03/29 04:40:08;;;;;;;15.63;7.88;;;;;;;2.03;79.06;97927.47;2626744;28;20414;-81
2022/03/29 04:41:24;;;;;;;15.93;7.93;;;;;;;2.04;78.69;97926.63;2627052;28;20155;-80
2022/03/29 04:42:45;;;;;;;17.05;7.72;;;;;;;1.98;79.24;97923.16;2627399;28;20097;-85
2022/03/29 04:44:00;;;;;;;17.50;8.13;;;;;;;1.99;79.30;97926.63;2627060;28;20060;-79
2022/03/29 04:45:17;;;;;;;14.55;7.75;;;;;;;1.99;79.37;97934.38;2627224;28;20784;-80
2022/03/29 04:46:33;;;;;;;16.98;8.23;;;;;;;1.98;79.67;97923.16;2627780;28;20140;-80
2022/03/29 04:47:48;;;;;;;14.30;7.93;;;;;;;1.98;79.40;97920.59;2626150;28;20045;-79
2022/03/29 04:49:04;;;;;;;16.25;7.78;;;;;;;1.98;79.11;97920.59;2626881;28;20052;-79
2022/03/29 04:50:20;;;;;;;16.48;8.63;;;;;;;2.00;78.97;97915.44;2627348;28;20434;-84
2022/03/29 04:51:35;;;;;;;14.93;7.75;;;;;;;1.97;79.42;97923.19;2627096;28;20051;-84
2022/03/29 04:52:51;;;;;;;15.65;8.05;;;;;;;1.93;80.71;97914.59;2627050;28;20141;-82
2022/03/29 04:54:06;;;;;;;13.88;8.05;;;;;;;1.82;80.10;97916.31;2626995;28;20048;-82
2022/03/29 04:55:22;;;;;;;15.40;8.52;;;;;;;1.82;80.03;97918.91;2627415;28;20490;-82
2022/03/29 04:56:38;;;;;;;20.98;8.45;;;;;;;1.82;79.85;97912.03;2626544;28;20411;-83
2022/03/29 04:57:54;;;;;;;16.45;8.27;;;;;;;1.82;80.30;97914.59;2625931;28;20058;-83
2022/03/29 04:59:09;;;;;;;15.85;8.18;;;;;;;1.85;80.08;97913.72;2627026;28;20067;-82
2022/03/29 05:00:25;;;;;;;19.17;8.07;;;;;;;1.83;80.21;97913.75;2626434;28;20525;-87
2022/03/29 05:01:41;;;;;;;18.15;7.88;;;;;;;1.85;80.17;97913.72;2626664;28;20058;-85
2022/03/29 05:02:56;;;;;;;13.40;7.22;;;;;;;1.88;79.86;97910.28;2626650;28;20517;-84
2022/03/29 05:04:12;;;;;;;14.73;8.30;;;;;;;1.82;80.17;97906.88;2625756;28;20044;-82
2022/03/29 05:05:27;;;;;;;13.90;8.35;;;;;;;1.83;80.31;97905.13;2626136;28;20051;-82
2022/03/29 05:06:43;;;;;;;16.52;8.25;;;;;;;1.84;79.90;97909.44;2626269;28;20043;-82
2022/03/29 05:07:59;;;;;;;16.50;8.13;;;;;;;1.81;80.79;97912.84;2626397;28;20063;-79
2022/03/29 05:09:14;;;;;;;21.63;9.48;;;;;;;1.87;81.26;97917.16;2627128;28;20048;-83
2022/03/29 05:10:30;;;;;;;14.90;8.10;;;;;;;2.05;79.88;97912.84;2627173;28;20056;-79
2022/03/29 05:11:45;;;;;;;16.95;7.97;;;;;;;2.16;79.94;97917.97;2626428;28;20059;-80
2022/03/29 05:13:01;;;;;;;26.35;9.13;;;;;;;2.23;79.82;97923.13;2626410;28;20422;-79
2022/03/29 05:14:17;;;;;;;16.90;8.65;;;;;;;2.19;80.54;97917.97;2626332;28;20052;-81
2022/03/29 05:15:33;;;;;;;18.30;10.07;;;;;;;2.19;80.44;97925.72;2626881;28;20418;-79
2022/03/29 05:16:48;;;;;;;18.65;9.20;;;;;;;2.14;80.16;97923.13;2626842;28;20040;-80
2022/03/29 05:18:04;;;;;;;18.85;8.77;;;;;;;2.14;80.28;97922.28;2627497;28;20051;-79
2022/03/29 05:19:19;;;;;;;20.50;9.27;;;;;;;2.11;79.91;97915.41;2625538;28;20069;-79
2022/03/29 05:20:36;;;;;;;15.25;8.52;;;;;;;2.12;80.02;97924.88;2626823;28;20051;-80
2022/03/29 05:22:08;;;;;;;16.02;8.35;;;;;;;2.13;80.23;97925.75;2626099;28;20138;-81
2022/03/29 05:23:23;;;;;;;21.83;9.23;;;;;;;2.14;80.41;97919.69;2626576;28;20134;-81
2022/03/29 05:24:39;;;;;;;25.38;9.55;;;;;;;2.17;80.22;97917.97;2624752;28;20085;-80
2022/03/29 05:25:54;;;;;;;16.95;8.52;;;;;;;2.15;81.28;97924.84;2626775;28;20525;-81
2022/03/29 05:27:10;;;;;;;17.50;9.32;;;;;;;2.18;81.07;97919.69;2626829;28;20121;-80
2022/03/29 05:28:25;;;;;;;18.38;9.52;;;;;;;2.25;80.97;97920.53;2625551;28;20044;-80
2022/03/29 05:29:41;;;;;;;20.60;10.82;;;;;;;2.34;80.49;97924.81;2626571;28;20044;-78
2022/03/29 05:30:57;;;;;;;27.15;12.60;;;;;;;2.42;80.47;97922.19;2626841;28;20080;-79
2022/03/29 05:32:18;;;;;;;26.88;13.98;;;;;;;2.35;81.08;97916.19;2626842;28;20059;-79
2022/03/29 05:33:34;;;;;;;26.33;13.02;;;;;;;2.33;81.27;97917.94;2627100;28;20482;-79
2022/03/29 05:34:49;;;;;;;31.10;16.25;;;;;;;2.33;81.00;97916.19;2626477;28;20048;-79
2022/03/29 05:36:05;;;;;;;32.35;16.38;;;;;;;2.33;80.88;97913.59;2627495;28;20055;-79
2022/03/29 05:37:20;;;;;;;27.55;12.73;;;;;;;2.35;80.64;97917.03;2626371;28;20052;-79
2022/03/29 05:38:36;;;;;;;24.00;13.57;;;;;;;2.37;80.82;97923.06;2626767;28;20055;-81
2022/03/29 05:39:51;;;;;;;26.30;12.40;;;;;;;2.40;80.79;97920.50;2626951;28;20127;-80
2022/03/29 05:41:09;;;;;;;27.63;12.30;;;;;;;2.42;80.95;97924.78;2627578;28;20421;-79
2022/03/29 05:42:25;;;;;;;25.85;11.77;;;;;;;2.45;81.17;97922.19;2626649;28;20393;-79
2022/03/29 05:43:41;;;;;;;23.27;11.23;;;;;;;2.48;81.45;97920.47;2626265;28;20048;-80
2022/03/29 05:44:57;;;;;;;20.58;10.25;;;;;;;2.48;81.98;97920.47;2626624;28;20112;-84
2022/03/29 05:49:22;;;;;;;20.83;9.93;;;;;;;2.60;83.09;97922.13;2626733;28;20048;-84
2022/03/29 05:50:39;;;;;;;20.85;9.75;;;;;;;2.64;83.03;97913.47;2626697;28;20051;-83
2022/03/29 05:51:55;;;;;;;16.65;9.25;;;;;;;2.71;83.07;97918.63;2626700;28;20080;-86
2022/03/29 05:53:10;;;;;;;20.45;9.55;;;;;;;2.79;82.69;97922.03;2626279;28;20063;-84
2022/03/29 05:54:26;;;;;;;17.55;9.52;;;;;;;2.85;82.35;97915.97;2626774;28;20529;-83
2022/03/29 05:55:42;;;;;;;15.98;8.55;;;;;;;2.92;81.69;97917.66;2628322;28;20052;-83
2022/03/29 05:56:58;;;;;;;17.42;9.75;;;;;;;2.99;81.78;97914.16;2628960;28;20059;-83
2022/03/29 05:58:16;;;;;;;18.30;9.85;;;;;;;3.04;81.65;97919.31;2628989;28;20051;-83
2022/03/29 05:59:31;;;;;;;18.42;9.73;;;;;;;3.06;81.75;97914.97;2627820;28;20056;-83
2022/03/29 06:00:47;;;;;;;19.15;9.75;;;;;;;3.17;80.36;97917.53;2628276;28;20471;-82
2022/03/29 06:02:04;;;;;;;16.92;9.57;;;;;;;3.18;80.23;97914.91;2628782;28;20471;-84
2022/03/29 06:03:20;;;;;;;21.48;9.27;;;;;;;3.19;79.78;97920.94;2628182;28;20044;-82
2022/03/29 06:04:36;;;;;;;26.17;10.60;;;;;;;3.19;80.14;97916.63;2629030;28;20055;-82